createdAt,value
2017-09-15T00:00:42.307Z,53.87
2017-09-15T00:01:51.261Z,53.29
2017-09-15T00:03:00.055Z,53.29
2017-09-15T00:04:09.337Z,53.77
2017-09-15T00:05:18.634Z,53.29
2017-09-15T00:06:27.341Z,53.29
2017-09-15T00:07:35.982Z,53.39
2017-09-15T00:08:44.834Z,53.39
2017-09-15T00:09:53.488Z,53.87
2017-09-15T00:11:02.153Z,53.87
2017-09-15T00:12:11.434Z,53.87
2017-09-15T00:13:20.714Z,53.39
2017-09-15T00:14:29.993Z,54.25
2017-09-15T00:15:38.950Z,53.29
2017-09-15T00:16:47.586Z,54.16
2017-09-15T00:17:56.227Z,53.19
2017-09-15T00:19:05.211Z,53.39
2017-09-15T00:20:14.332Z,53.39
2017-09-15T00:21:23.615Z,53.39
2017-09-15T00:22:32.574Z,53.58
2017-09-15T00:23:41.536Z,53.96
2017-09-15T00:24:50.808Z,53.96
2017-09-15T00:25:59.935Z,53.96
2017-09-15T00:27:08.900Z,53.77
2017-09-15T00:28:18.175Z,54.06
2017-09-15T00:29:26.827Z,53.48
2017-09-15T00:30:35.787Z,53.87
2017-09-15T00:31:44.743Z,53.96
2017-09-15T00:32:53.709Z,53.87
2017-09-15T00:34:02.356Z,53.96
2017-09-15T00:35:11.940Z,53.96
2017-09-15T00:36:20.904Z,54.06
2017-09-15T00:37:30.180Z,54.06
2017-09-15T00:38:39.460Z,54.25
2017-09-15T00:39:48.729Z,54.25
2017-09-15T00:40:58.006Z,53.96
2017-09-15T00:42:06.969Z,54.16
2017-09-15T00:43:16.398Z,53.77
2017-09-15T00:44:25.680Z,54.16
2017-09-15T00:45:34.637Z,54.16
2017-09-15T00:46:43.292Z,54.16
2017-09-15T00:47:52.262Z,54.06
2017-09-15T00:49:00.903Z,54.16
2017-09-15T00:50:09.863Z,54.16
2017-09-15T00:51:18.820Z,53.96
2017-09-15T00:52:27.471Z,54.16
2017-09-15T00:53:36.118Z,54.16
2017-09-15T00:54:44.770Z,53.96
2017-09-15T00:55:53.418Z,54.06
2017-09-15T00:57:02.687Z,53.96
2017-09-15T00:58:12.283Z,54.06
2017-09-15T00:59:20.934Z,53.67
2017-09-15T01:00:30.235Z,53.87
2017-09-15T01:01:40.154Z,53.96
2017-09-15T01:02:48.817Z,53.96
2017-09-15T01:03:58.090Z,53.87
2017-09-15T01:05:08.003Z,53.87
2017-09-15T01:06:17.430Z,54.06
2017-09-15T01:07:26.392Z,54.06
2017-09-15T01:08:35.354Z,53.77
2017-09-15T01:09:44.003Z,53.87
2017-09-15T01:10:53.920Z,53.87
2017-09-15T01:12:02.566Z,53.96
2017-09-15T01:13:11.223Z,53.96
2017-09-15T01:14:19.872Z,53.96
2017-09-15T01:15:28.824Z,53.96
2017-09-15T01:16:38.102Z,54.06
2017-09-15T01:17:47.533Z,53.96
2017-09-15T01:18:56.185Z,53.96
2017-09-15T01:20:04.852Z,53.77
2017-09-15T01:21:14.464Z,53.87
2017-09-15T01:22:23.430Z,53.87
2017-09-15T01:23:32.543Z,53.58
2017-09-15T01:24:41.821Z,53.96
2017-09-15T01:25:50.788Z,53.96
2017-09-15T01:26:59.447Z,53.77
2017-09-15T01:28:08.414Z,53.77
2017-09-15T01:29:17.532Z,53.77
2017-09-15T01:30:26.174Z,53.67
2017-09-15T01:31:35.447Z,53.77
2017-09-15T01:32:44.409Z,53.96
2017-09-15T01:33:53.374Z,53.77
2017-09-15T01:35:02.336Z,53.58
2017-09-15T01:36:11.620Z,53.77
2017-09-15T01:37:21.213Z,53.87
2017-09-15T01:38:30.182Z,53.58
2017-09-15T01:39:39.139Z,53.87
2017-09-15T01:40:48.564Z,53.77
2017-09-15T01:41:57.525Z,53.77
2017-09-15T01:43:06.800Z,53.87
2017-09-15T01:44:15.747Z,53.77
2017-09-15T01:45:24.703Z,53.87
2017-09-15T01:46:34.465Z,54.06
2017-09-15T01:47:43.104Z,53.96
2017-09-15T01:48:52.066Z,53.96
2017-09-15T01:50:01.344Z,53.87
2017-09-15T01:51:10.621Z,53.77
2017-09-15T01:52:20.046Z,53.77
2017-09-15T01:53:29.008Z,53.77
2017-09-15T01:54:37.955Z,53.77
2017-09-15T01:55:46.593Z,53.96
2017-09-15T01:56:55.544Z,53.96
2017-09-15T01:58:04.670Z,53.67
2017-09-15T01:59:13.697Z,53.96
2017-09-15T02:00:23.278Z,53.96
2017-09-15T02:01:32.300Z,53.96
2017-09-15T02:02:41.571Z,53.58
2017-09-15T02:03:50.216Z,53.96
2017-09-15T02:04:58.870Z,53.87
2017-09-15T02:06:08.140Z,53.96
2017-09-15T02:07:17.109Z,53.67
2017-09-15T02:08:26.073Z,53.96
2017-09-15T02:09:35.512Z,53.67
2017-09-15T02:10:44.176Z,53.77
2017-09-15T02:11:53.753Z,53.77
2017-09-15T02:13:02.415Z,53.96
2017-09-15T02:14:11.391Z,53.96
2017-09-15T02:15:20.812Z,53.67
2017-09-15T02:16:29.782Z,53.96
2017-09-15T02:17:39.079Z,53.96
2017-09-15T02:18:47.776Z,53.96
2017-09-15T02:19:57.096Z,53.96
2017-09-15T02:21:05.733Z,53.96
2017-09-15T02:22:15.013Z,54.06
2017-09-15T02:23:24.299Z,53.77
2017-09-15T02:24:33.261Z,53.77
2017-09-15T02:25:42.852Z,53.77
2017-09-15T02:26:51.952Z,53.77
2017-09-15T02:28:00.906Z,53.96
2017-09-15T02:29:09.870Z,53.96
2017-09-15T02:30:19.519Z,53.67
2017-09-15T02:31:29.124Z,53.87
2017-09-15T02:32:38.232Z,53.96
2017-09-15T02:33:46.890Z,53.96
2017-09-15T02:34:56.158Z,54.06
2017-09-15T02:36:04.802Z,53.77
2017-09-15T02:37:14.145Z,53.96
2017-09-15T02:38:23.421Z,53.67
2017-09-15T02:39:32.065Z,53.96
2017-09-15T02:40:41.337Z,53.77
2017-09-15T02:41:50.297Z,53.58
2017-09-15T02:42:59.590Z,53.96
2017-09-15T02:44:09.036Z,53.96
2017-09-15T02:45:18.308Z,53.77
2017-09-15T02:46:27.917Z,53.96
2017-09-15T02:47:36.564Z,53.96
2017-09-15T02:48:45.214Z,53.96
2017-09-15T02:49:54.322Z,53.96
2017-09-15T02:51:03.593Z,53.96
2017-09-15T02:52:13.199Z,53.67
2017-09-15T02:53:22.473Z,53.96
2017-09-15T02:54:32.061Z,53.96
2017-09-15T02:55:41.021Z,53.67
2017-09-15T02:56:49.987Z,53.96
2017-09-15T02:57:58.944Z,53.77
2017-09-15T02:59:08.234Z,53.96
2017-09-15T03:00:17.180Z,53.96
2017-09-15T03:01:26.138Z,53.96
2017-09-15T03:02:35.403Z,53.96
2017-09-15T03:03:44.675Z,53.67
2017-09-15T03:04:53.942Z,54.06
2017-09-15T03:06:02.597Z,53.77
2017-09-15T03:07:11.969Z,54.06
2017-09-15T03:08:20.606Z,54.06
2017-09-15T03:09:29.571Z,53.87
2017-09-15T03:10:39.164Z,53.96
2017-09-15T03:11:48.121Z,53.87
2017-09-15T03:12:57.500Z,53.96
2017-09-15T03:14:06.462Z,53.96
2017-09-15T03:15:15.417Z,53.77
2017-09-15T03:16:24.687Z,53.87
2017-09-15T03:17:33.342Z,53.77
2017-09-15T03:18:42.101Z,54.16
2017-09-15T03:19:51.069Z,54.16
2017-09-15T03:21:00.032Z,54.06
2017-09-15T03:22:08.694Z,53.96
2017-09-15T03:23:17.352Z,53.87
2017-09-15T03:24:26.455Z,53.96
2017-09-15T03:25:35.388Z,53.96
2017-09-15T03:26:44.358Z,53.96
2017-09-15T03:27:53.637Z,53.96
2017-09-15T03:29:03.236Z,53.96
2017-09-15T03:30:12.344Z,54.06
2017-09-15T03:31:20.989Z,54.06
2017-09-15T03:32:30.264Z,53.96
2017-09-15T03:33:39.536Z,53.77
2017-09-15T03:34:48.484Z,53.87
2017-09-15T03:35:57.776Z,53.48
2017-09-15T03:37:07.057Z,53.77
2017-09-15T03:38:16.008Z,53.39
2017-09-15T03:39:25.277Z,53.29
2017-09-15T03:40:34.551Z,53.19
2017-09-15T03:41:43.614Z,53.29
2017-09-15T03:42:52.256Z,54.35
2017-09-15T03:44:01.845Z,53.29
2017-09-15T03:45:10.477Z,53.58
2017-09-15T03:46:20.070Z,53.29
2017-09-15T03:47:29.045Z,53.29
2017-09-15T03:48:38.003Z,53.67
2017-09-15T03:49:47.594Z,53.39
2017-09-15T03:50:56.562Z,53.39
2017-09-15T03:52:05.534Z,53.39
2017-09-15T03:53:14.952Z,53.29
2017-09-15T03:54:23.900Z,53.48
2017-09-15T03:55:33.170Z,53.29
2017-09-15T03:56:42.128Z,53.87
2017-09-15T03:57:51.398Z,53.19
2017-09-15T03:59:01.086Z,53.48
2017-09-15T04:00:10.354Z,53.19
2017-09-15T04:01:19.623Z,53.19
2017-09-15T04:02:29.203Z,53.67
2017-09-15T04:03:38.170Z,53.48
2017-09-15T04:04:46.959Z,53.58
2017-09-15T04:05:55.602Z,53.58
2017-09-15T04:07:04.578Z,53.58
2017-09-15T04:08:13.229Z,53.67
2017-09-15T04:09:22.830Z,53.67
2017-09-15T04:10:31.787Z,53.67
2017-09-15T04:11:41.377Z,53
2017-09-15T04:12:50.347Z,53.39
2017-09-15T04:13:59.622Z,53.29
2017-09-15T04:15:08.276Z,53.77
2017-09-15T04:16:17.406Z,53.67
2017-09-15T04:17:26.047Z,53.29
2017-09-15T04:18:35.334Z,53.48
2017-09-15T04:19:44.314Z,53.29
2017-09-15T04:20:53.274Z,53.67
2017-09-15T04:22:02.229Z,53.19
2017-09-15T04:23:11.508Z,53.58
2017-09-15T04:24:20.465Z,53.29
2017-09-15T04:25:30.691Z,53.29
2017-09-15T04:26:39.668Z,53.58
2017-09-15T04:27:48.458Z,53.19
2017-09-15T04:28:57.447Z,53.58
2017-09-15T04:30:06.720Z,53.48
2017-09-15T04:31:15.683Z,53.19
2017-09-15T04:32:24.643Z,53.58
2017-09-15T04:33:34.221Z,53.19
2017-09-15T04:34:42.861Z,53.48
2017-09-15T04:35:51.832Z,53.48
2017-09-15T04:37:00.484Z,53.19
2017-09-15T04:38:09.447Z,53.58
2017-09-15T04:39:19.026Z,53.29
2017-09-15T04:40:27.772Z,53.19
2017-09-15T04:41:36.758Z,53.67
2017-09-15T04:42:45.719Z,53.48
2017-09-15T04:43:55.002Z,53.39
2017-09-15T04:45:04.137Z,53.39
2017-09-15T04:46:13.718Z,53.39
2017-09-15T04:47:22.357Z,53.39
2017-09-15T04:48:31.974Z,53.19
2017-09-15T04:49:41.592Z,53.19
2017-09-15T04:50:51.022Z,53.39
2017-09-15T04:52:00.921Z,53.19
2017-09-15T04:53:10.537Z,53.39
2017-09-15T04:54:19.187Z,53.09
2017-09-15T04:55:27.834Z,53.39
2017-09-15T04:56:37.146Z,53.48
2017-09-15T04:57:46.109Z,53
2017-09-15T04:58:55.070Z,53.19
2017-09-15T05:00:04.966Z,53.29
2017-09-15T05:01:14.549Z,53.19
2017-09-15T05:02:23.511Z,53.29
2017-09-15T05:03:32.465Z,53.19
2017-09-15T05:04:41.740Z,53.39
2017-09-15T05:05:50.698Z,53.48
2017-09-15T05:06:59.670Z,52.91
2017-09-15T05:08:08.790Z,53.39
2017-09-15T05:09:18.453Z,53.48
2017-09-15T05:10:27.411Z,53.09
2017-09-15T05:11:36.054Z,53.39
2017-09-15T05:12:45.334Z,53.09
2017-09-15T05:13:54.139Z,52.91
2017-09-15T05:15:03.414Z,52.91
2017-09-15T05:16:12.059Z,53.29
2017-09-15T05:17:20.734Z,53.58
2017-09-15T05:18:30.005Z,53.58
2017-09-15T05:19:39.747Z,53
2017-09-15T05:20:48.708Z,53.09
2017-09-15T05:21:57.348Z,53.58
2017-09-15T05:23:06.681Z,52.81
2017-09-15T05:24:15.333Z,52.91
2017-09-15T05:25:24.400Z,53
2017-09-15T05:26:33.360Z,53.39
2017-09-15T05:27:42.001Z,53
2017-09-15T05:28:50.970Z,53.77
2017-09-15T05:29:59.938Z,53.77
2017-09-15T05:31:09.044Z,53.09
2017-09-15T05:32:17.688Z,53
2017-09-15T05:33:26.965Z,53.09
2017-09-15T05:34:35.602Z,53.19
2017-09-15T05:35:44.900Z,53.09
2017-09-15T05:36:54.013Z,53.22
2017-09-15T05:38:03.006Z,53.09
2017-09-15T05:39:12.296Z,53.29
2017-09-15T05:40:21.906Z,53.09
2017-09-15T05:41:30.903Z,53.31
2017-09-15T05:42:39.553Z,53.19
2017-09-15T05:43:48.839Z,53.13
2017-09-15T05:44:58.249Z,52.83
2017-09-15T05:46:07.299Z,52.93
2017-09-15T05:47:16.582Z,52.83
2017-09-15T05:48:25.607Z,52.83
2017-09-15T05:49:34.268Z,52.83
2017-09-15T05:50:43.933Z,53.13
2017-09-15T05:51:53.658Z,53.13
2017-09-15T05:53:02.739Z,53.03
2017-09-15T05:54:11.787Z,53.22
2017-09-15T05:55:21.076Z,53.31
2017-09-15T05:56:30.088Z,52.93
2017-09-15T05:57:39.702Z,52.83
2017-09-15T05:58:49.330Z,52.93
2017-09-15T05:59:58.401Z,52.64
2017-09-15T06:01:07.114Z,52.83
2017-09-15T06:02:16.128Z,52.55
2017-09-15T06:03:24.801Z,52.55
2017-09-15T06:04:33.492Z,52.45
2017-09-15T06:05:42.265Z,52.73
2017-09-15T06:06:50.965Z,52.45
2017-09-15T06:07:59.972Z,52.73
2017-09-15T06:09:08.991Z,52.45
2017-09-15T06:10:17.980Z,52.73
2017-09-15T06:11:27.111Z,52.64
2017-09-15T06:12:36.075Z,52.35
2017-09-15T06:13:44.771Z,52.45
2017-09-15T06:14:54.134Z,52.35
2017-09-15T06:16:02.793Z,52.35
2017-09-15T06:17:11.951Z,52.35
2017-09-15T06:18:20.908Z,52.45
2017-09-15T06:19:30.203Z,52.35
2017-09-15T06:20:39.194Z,52.55
2017-09-15T06:21:48.534Z,52.67
2017-09-15T06:22:57.977Z,52.93
2017-09-15T06:24:06.944Z,52.64
2017-09-15T06:25:15.935Z,52.64
2017-09-15T06:26:24.732Z,52.45
2017-09-15T06:27:34.024Z,52.64
2017-09-15T06:28:43.450Z,52.45
2017-09-15T06:29:52.740Z,52.64
2017-09-15T06:31:02.156Z,52.35
2017-09-15T06:32:11.469Z,52.55
2017-09-15T06:33:20.802Z,52.64
2017-09-15T06:34:29.543Z,52.55
2017-09-15T06:35:39.170Z,52.55
2017-09-15T06:36:48.428Z,52.64
2017-09-15T06:37:57.455Z,52.73
2017-09-15T06:39:06.889Z,52.55
2017-09-15T06:40:15.622Z,52.45
2017-09-15T06:41:24.595Z,52.45
2017-09-15T06:42:33.568Z,52.93
2017-09-15T06:43:42.856Z,53.03
2017-09-15T06:44:52.622Z,52.45
2017-09-15T06:46:04.182Z,52.64
2017-09-15T06:47:13.812Z,53.03
2017-09-15T06:48:22.786Z,52.93
2017-09-15T06:49:32.104Z,52.83
2017-09-15T06:50:41.431Z,52.64
2017-09-15T06:51:51.120Z,52.45
2017-09-15T06:53:00.746Z,52.45
2017-09-15T06:54:09.758Z,52.45
2017-09-15T06:55:19.105Z,52.64
2017-09-15T06:56:28.392Z,52.45
2017-09-15T06:57:37.658Z,52.73
2017-09-15T06:58:47.562Z,52.64
2017-09-15T06:59:56.659Z,52.93
2017-09-15T07:01:05.641Z,52.35
2017-09-15T07:02:15.051Z,52.45
2017-09-15T07:03:23.795Z,52.64
2017-09-15T07:04:32.511Z,52.76
2017-09-15T07:05:41.480Z,52.73
2017-09-15T07:06:50.448Z,52.64
2017-09-15T07:07:59.127Z,52.37
2017-09-15T07:09:08.450Z,52.28
2017-09-15T07:10:17.417Z,52.47
2017-09-15T07:11:26.091Z,52.45
2017-09-15T07:12:35.052Z,52.35
2017-09-15T07:13:44.334Z,52.55
2017-09-15T07:14:53.775Z,52.64
2017-09-15T07:16:02.780Z,52.64
2017-09-15T07:17:11.740Z,52.73
2017-09-15T07:18:21.325Z,52.83
2017-09-15T07:19:30.614Z,52.93
2017-09-15T07:20:39.995Z,52.55
2017-09-15T07:21:48.678Z,52.45
2017-09-15T07:22:57.373Z,52.45
2017-09-15T07:24:06.340Z,52.83
2017-09-15T07:25:15.327Z,52.64
2017-09-15T07:26:24.601Z,52.64
2017-09-15T07:27:33.557Z,52.55
2017-09-15T07:28:43.191Z,52.64
2017-09-15T07:29:52.477Z,52.64
2017-09-15T07:31:01.453Z,52.64
2017-09-15T07:32:10.458Z,52.64
2017-09-15T07:33:19.777Z,52.83
2017-09-15T07:34:29.059Z,52.93
2017-09-15T07:35:38.033Z,52.45
2017-09-15T07:36:46.686Z,52.64
2017-09-15T07:37:55.651Z,52.64
2017-09-15T07:39:04.933Z,52.73
2017-09-15T07:40:14.546Z,52.64
2017-09-15T07:41:23.527Z,52.73
2017-09-15T07:42:32.805Z,52.45
2017-09-15T07:43:41.800Z,52.35
2017-09-15T07:44:51.080Z,52.64
2017-09-15T07:46:00.045Z,52.09
2017-09-15T07:47:09.337Z,52.19
2017-09-15T07:48:18.047Z,52.09
2017-09-15T07:49:27.187Z,51.99
2017-09-15T07:50:36.776Z,51.89
2017-09-15T07:51:46.671Z,52.09
2017-09-15T07:52:55.993Z,52.28
2017-09-15T07:54:04.978Z,52.09
2017-09-15T07:55:14.065Z,52.09
2017-09-15T07:56:23.424Z,51.89
2017-09-15T07:57:33.051Z,51.89
2017-09-15T07:58:41.719Z,51.8
2017-09-15T07:59:51.026Z,51.99
2017-09-15T08:00:59.693Z,51.61
2017-09-15T08:02:08.970Z,51.7
2017-09-15T08:03:18.658Z,51.8
2017-09-15T08:04:27.956Z,51.89
2017-09-15T08:05:36.932Z,51.51
2017-09-15T08:06:46.399Z,51.7
2017-09-15T08:07:55.675Z,51.7
2017-09-15T08:09:04.950Z,51.8
2017-09-15T08:10:13.645Z,51.7
2017-09-15T08:11:22.605Z,51.89
2017-09-15T08:12:31.606Z,51.7
2017-09-15T08:13:40.585Z,51.7
2017-09-15T08:14:49.551Z,51.99
2017-09-15T08:15:58.221Z,51.89
2017-09-15T08:17:07.690Z,51.89
2017-09-15T08:18:18.250Z,51.8
2017-09-15T08:19:28.128Z,51.89
2017-09-15T08:20:37.152Z,51.51
2017-09-15T08:21:46.497Z,51.8
2017-09-15T08:22:56.120Z,51.7
2017-09-15T08:24:05.158Z,51.7
2017-09-15T08:25:14.441Z,51.51
2017-09-15T08:26:23.724Z,51.61
2017-09-15T08:27:32.679Z,51.51
2017-09-15T08:28:42.266Z,51.7
2017-09-15T08:29:51.066Z,51.89
2017-09-15T08:31:00.027Z,51.99
2017-09-15T08:32:09.013Z,51.8
2017-09-15T08:33:18.020Z,51.89
2017-09-15T08:34:26.992Z,51.61
2017-09-15T08:35:36.310Z,51.63
2017-09-15T08:36:45.298Z,51.63
2017-09-15T08:37:53.957Z,51.51
2017-09-15T08:39:03.294Z,51.73
2017-09-15T08:40:11.972Z,51.63
2017-09-15T08:41:21.366Z,51.8
2017-09-15T08:42:30.029Z,51.7
2017-09-15T08:43:39.307Z,51.8
2017-09-15T08:44:48.271Z,52.09
2017-09-15T08:45:57.907Z,51.89
2017-09-15T08:47:06.568Z,51.7
2017-09-15T08:48:15.553Z,51.61
2017-09-15T08:49:24.835Z,51.89
2017-09-15T08:50:33.486Z,51.8
2017-09-15T08:51:42.147Z,51.89
2017-09-15T08:52:51.193Z,51.89
2017-09-15T08:54:00.811Z,51.7
2017-09-15T08:55:10.069Z,51.8
2017-09-15T08:56:19.052Z,51.7
2017-09-15T08:57:28.332Z,51.89
2017-09-15T08:58:37.797Z,51.89
2017-09-15T08:59:46.763Z,51.8
2017-09-15T09:00:55.746Z,51.99
2017-09-15T09:02:04.716Z,51.99
2017-09-15T09:03:14.043Z,51.99
2017-09-15T09:04:23.466Z,51.8
2017-09-15T09:05:32.425Z,51.61
2017-09-15T09:06:42.036Z,51.89
2017-09-15T09:07:50.728Z,51.61
2017-09-15T09:09:00.021Z,51.7
2017-09-15T09:10:08.680Z,51.99
2017-09-15T09:11:17.651Z,51.89
2017-09-15T09:12:26.310Z,51.8
2017-09-15T09:13:35.277Z,51.63
2017-09-15T09:14:44.254Z,51.82
2017-09-15T09:15:53.696Z,51.82
2017-09-15T09:17:02.352Z,51.73
2017-09-15T09:18:11.479Z,51.44
2017-09-15T09:19:21.374Z,51.44
2017-09-15T09:20:30.443Z,51.34
2017-09-15T09:21:39.568Z,51.44
2017-09-15T09:22:48.905Z,51.34
2017-09-15T09:23:58.563Z,51.44
2017-09-15T09:25:07.629Z,51.34
2017-09-15T09:26:17.171Z,51.34
2017-09-15T09:27:26.688Z,51.15
2017-09-15T09:28:36.565Z,51.15
2017-09-15T09:29:45.772Z,51.34
2017-09-15T09:30:54.458Z,51.34
2017-09-15T09:32:03.787Z,51.15
2017-09-15T09:33:13.037Z,51.53
2017-09-15T09:34:22.721Z,51.44
2017-09-15T09:35:31.382Z,51.44
2017-09-15T09:36:40.253Z,51.44
2017-09-15T09:37:49.249Z,51.44
2017-09-15T09:38:58.361Z,51.92
2017-09-15T09:40:08.164Z,52.01
2017-09-15T09:41:17.467Z,51.82
2017-09-15T09:42:26.749Z,51.92
2017-09-15T09:43:35.796Z,51.53
2017-09-15T09:44:45.243Z,51.92
2017-09-15T09:45:54.897Z,51.92
2017-09-15T09:47:03.540Z,51.73
2017-09-15T09:48:13.149Z,51.82
2017-09-15T09:49:21.854Z,51.92
2017-09-15T09:50:30.561Z,51.63
2017-09-15T09:51:40.718Z,51.34
2017-09-15T09:52:50.521Z,51.44
2017-09-15T09:53:59.183Z,51.25
2017-09-15T09:55:08.154Z,50.96
2017-09-15T09:56:18.030Z,51.05
2017-09-15T09:57:27.062Z,50.96
2017-09-15T09:58:36.206Z,51.15
2017-09-15T09:59:45.502Z,51.34
2017-09-15T10:00:54.186Z,51.34
2017-09-15T10:02:05.091Z,50.96
2017-09-15T10:03:13.746Z,51.25
2017-09-15T10:04:23.338Z,50.96
2017-09-15T10:05:33.052Z,51.25
2017-09-15T10:06:42.380Z,51.25
2017-09-15T10:07:51.670Z,51.44
2017-09-15T10:09:01.359Z,51.44
2017-09-15T10:10:10.420Z,51.53
2017-09-15T10:11:19.288Z,51.25
2017-09-15T10:12:28.461Z,51.25
2017-09-15T10:13:37.888Z,50.96
2017-09-15T10:14:47.168Z,51.05
2017-09-15T10:15:56.592Z,51.05
2017-09-15T10:17:05.588Z,51.25
2017-09-15T10:18:14.888Z,51.05
2017-09-15T10:19:24.263Z,51.05
2017-09-15T10:20:33.084Z,51.05
2017-09-15T10:21:42.735Z,51.25
2017-09-15T10:22:51.723Z,50.76
2017-09-15T10:24:01.696Z,51.25
2017-09-15T10:25:12.553Z,51.15
2017-09-15T10:26:21.844Z,50.96
2017-09-15T10:27:30.810Z,51.44
2017-09-15T10:28:39.781Z,51.25
2017-09-15T10:29:49.062Z,51.25
2017-09-15T10:30:58.207Z,51.44
2017-09-15T10:32:07.484Z,51.34
2017-09-15T10:33:16.444Z,51.44
2017-09-15T10:34:25.767Z,51.44
2017-09-15T10:35:34.741Z,51.25
2017-09-15T10:36:44.166Z,51.53
2017-09-15T10:37:52.804Z,51.15
2017-09-15T10:39:01.776Z,51.34
2017-09-15T10:40:10.735Z,51.34
2017-09-15T10:41:19.709Z,50.86
2017-09-15T10:42:29.136Z,51.05
2017-09-15T10:43:38.122Z,51.05
2017-09-15T10:44:46.768Z,51.05
2017-09-15T10:45:55.746Z,50.86
2017-09-15T10:47:05.087Z,51.34
2017-09-15T10:48:14.832Z,51.15
2017-09-15T10:49:23.799Z,51.34
2017-09-15T10:50:32.764Z,51.34
2017-09-15T10:51:41.409Z,51.44
2017-09-15T10:52:50.678Z,51.25
2017-09-15T10:54:00.043Z,51.44
2017-09-15T10:55:09.380Z,51.44
2017-09-15T10:56:18.053Z,51.34
2017-09-15T10:57:27.029Z,51.73
2017-09-15T10:58:35.990Z,51.73
2017-09-15T10:59:44.971Z,51.82
2017-09-15T11:00:53.938Z,51.82
2017-09-15T11:02:02.611Z,51.82
2017-09-15T11:03:12.519Z,51.82
2017-09-15T11:04:22.119Z,51.73
2017-09-15T11:05:31.232Z,51.92
2017-09-15T11:06:40.195Z,51.73
2017-09-15T11:07:49.181Z,51.53
2017-09-15T11:08:58.523Z,51.82
2017-09-15T11:10:07.492Z,51.73
2017-09-15T11:11:16.461Z,51.82
2017-09-15T11:12:25.429Z,51.82
2017-09-15T11:13:34.709Z,51.73
2017-09-15T11:14:44.304Z,51.63
2017-09-15T11:15:53.268Z,52.11
2017-09-15T11:17:01.958Z,51.25
2017-09-15T11:18:11.571Z,51.25
2017-09-15T11:19:20.848Z,51.25
2017-09-15T11:20:29.829Z,51.53
2017-09-15T11:21:39.106Z,51.44
2017-09-15T11:22:47.920Z,51.44
2017-09-15T11:23:56.561Z,51.53
2017-09-15T11:25:05.519Z,51.15
2017-09-15T11:26:14.183Z,51.25
2017-09-15T11:27:23.460Z,51.34
2017-09-15T11:28:32.580Z,51.05
2017-09-15T11:29:41.863Z,51.25
2017-09-15T11:30:51.154Z,51.05
2017-09-15T11:32:00.760Z,50.98
2017-09-15T11:33:09.749Z,51.07
2017-09-15T11:34:19.043Z,51.27
2017-09-15T11:35:28.328Z,50.89
2017-09-15T11:36:37.293Z,50.89
2017-09-15T11:37:46.576Z,50.96
2017-09-15T11:38:55.545Z,51.25
2017-09-15T11:40:04.983Z,51.25
2017-09-15T11:41:13.646Z,51.34
2017-09-15T11:42:22.618Z,51.53
2017-09-15T11:43:31.907Z,51.82
2017-09-15T11:44:41.185Z,51.92
2017-09-15T11:45:50.931Z,51.82
2017-09-15T11:46:59.917Z,51.73
2017-09-15T11:48:08.576Z,52.01
2017-09-15T11:49:17.564Z,52.01
2017-09-15T11:50:26.531Z,51.63
2017-09-15T11:51:35.499Z,51.82
2017-09-15T11:52:44.456Z,51.92
2017-09-15T11:53:53.416Z,52.01
2017-09-15T11:55:02.385Z,51.92
2017-09-15T11:56:11.673Z,51.63
2017-09-15T11:57:20.985Z,51.73
2017-09-15T11:58:29.630Z,51.73
2017-09-15T11:59:38.600Z,51.92
2017-09-15T12:00:47.902Z,51.73
2017-09-15T12:01:56.867Z,51.63
2017-09-15T12:03:05.521Z,51.82
2017-09-15T12:04:14.801Z,51.92
2017-09-15T12:05:23.465Z,51.82
2017-09-15T12:06:32.514Z,51.92
2017-09-15T12:07:42.121Z,51.63
2017-09-15T12:08:50.773Z,51.73
2017-09-15T12:09:59.753Z,51.44
2017-09-15T12:11:09.052Z,51.44
2017-09-15T12:12:18.029Z,51.25
2017-09-15T12:13:26.667Z,51.53
2017-09-15T12:14:35.630Z,51.25
2017-09-15T12:15:44.292Z,51.25
2017-09-15T12:16:53.262Z,51.34
2017-09-15T12:18:02.552Z,51.44
2017-09-15T12:19:11.832Z,51.44
2017-09-15T12:20:20.950Z,51.53
2017-09-15T12:21:30.229Z,52.01
2017-09-15T12:22:39.544Z,51.82
2017-09-15T12:23:48.516Z,51.73
2017-09-15T12:24:57.477Z,51.73
2017-09-15T12:26:06.449Z,51.82
2017-09-15T12:27:15.110Z,51.92
2017-09-15T12:28:24.722Z,51.73
2017-09-15T12:29:34.123Z,51.82
2017-09-15T12:30:42.792Z,51.73
2017-09-15T12:31:51.603Z,51.92
2017-09-15T12:33:00.885Z,52.01
2017-09-15T12:34:09.545Z,51.73
2017-09-15T12:35:18.827Z,51.92
2017-09-15T12:36:27.804Z,51.82
2017-09-15T12:37:36.751Z,52.01
2017-09-15T12:38:45.401Z,51.63
2017-09-15T12:39:54.686Z,51.82
2017-09-15T12:41:03.662Z,51.63
2017-09-15T12:42:12.337Z,51.92
2017-09-15T12:43:22.076Z,51.73
2017-09-15T12:44:31.376Z,51.92
2017-09-15T12:45:40.698Z,52.11
2017-09-15T12:46:49.386Z,52.01
2017-09-15T12:47:58.354Z,52.01
2017-09-15T12:49:07.644Z,52.01
2017-09-15T12:50:16.628Z,52.01
2017-09-15T12:51:25.299Z,51.92
2017-09-15T12:52:34.913Z,51.82
2017-09-15T12:53:43.874Z,51.82
2017-09-15T12:54:52.624Z,51.73
2017-09-15T12:56:01.589Z,51.92
2017-09-15T12:57:11.189Z,51.82
2017-09-15T12:58:19.850Z,51.63
2017-09-15T12:59:28.807Z,51.82
2017-09-15T13:00:37.757Z,51.82
2017-09-15T13:01:46.436Z,51.92
2017-09-15T13:02:55.720Z,52.01
2017-09-15T13:04:04.376Z,51.63
2017-09-15T13:05:13.668Z,51.53
2017-09-15T13:06:22.645Z,51.92
2017-09-15T13:07:31.326Z,51.82
2017-09-15T13:08:40.411Z,51.92
2017-09-15T13:09:49.382Z,51.73
2017-09-15T13:10:58.674Z,51.82
2017-09-15T13:12:07.791Z,51.63
2017-09-15T13:13:16.443Z,51.53
2017-09-15T13:14:26.032Z,51.63
2017-09-15T13:15:35.320Z,51.34
2017-09-15T13:16:44.274Z,51.53
2017-09-15T13:17:53.399Z,51.25
2017-09-15T13:19:02.731Z,51.44
2017-09-15T13:20:12.039Z,51.92
2017-09-15T13:21:21.013Z,51.92
2017-09-15T13:22:29.666Z,51.92
2017-09-15T13:23:38.957Z,51.63
2017-09-15T13:24:47.924Z,51.82
2017-09-15T13:25:57.214Z,51.92
2017-09-15T13:27:06.485Z,51.82
2017-09-15T13:28:16.422Z,51.82
2017-09-15T13:29:25.553Z,51.63
2017-09-15T13:30:34.222Z,51.73
2017-09-15T13:31:43.188Z,51.82
2017-09-15T13:32:51.829Z,52.01
2017-09-15T13:34:01.105Z,52.01
2017-09-15T13:35:10.196Z,51.92
2017-09-15T13:36:19.481Z,51.53
2017-09-15T13:37:28.457Z,51.73
2017-09-15T13:38:37.431Z,51.82
2017-09-15T13:39:46.396Z,51.53
2017-09-15T13:40:55.371Z,51.63
2017-09-15T13:42:04.674Z,51.92
2017-09-15T13:43:13.653Z,51.63
2017-09-15T13:44:22.936Z,52.01
2017-09-15T13:45:31.893Z,51.82
2017-09-15T13:46:41.171Z,51.82
2017-09-15T13:47:49.820Z,51.73
2017-09-15T13:48:59.134Z,51.82
2017-09-15T13:50:08.089Z,51.73
2017-09-15T13:51:17.061Z,51.82
2017-09-15T13:52:26.488Z,51.82
2017-09-15T13:53:35.135Z,51.63
2017-09-15T13:54:44.103Z,52.01
2017-09-15T13:55:53.105Z,51.92
2017-09-15T13:57:02.077Z,52.11
2017-09-15T13:58:10.765Z,52.01
2017-09-15T13:59:19.729Z,52.01
2017-09-15T14:00:28.690Z,52.11
2017-09-15T14:01:37.662Z,52.11
2017-09-15T14:02:46.627Z,52.01
2017-09-15T14:03:55.282Z,52.01
2017-09-15T14:05:04.566Z,52.01
2017-09-15T14:06:13.561Z,52.21
2017-09-15T14:07:22.544Z,52.11
2017-09-15T14:08:31.517Z,52.01
2017-09-15T14:09:41.119Z,52.01
2017-09-15T14:10:50.091Z,52.11
2017-09-15T14:11:59.064Z,52.01
2017-09-15T14:13:08.351Z,52.11
2017-09-15T14:14:17.630Z,52.21
2017-09-15T14:15:27.056Z,52.01
2017-09-15T14:16:36.019Z,52.21
2017-09-15T14:17:44.986Z,52.01
2017-09-15T14:18:53.947Z,52.01
2017-09-15T14:20:02.920Z,52.11
2017-09-15T14:21:11.662Z,52.21
2017-09-15T14:22:20.632Z,52.11
2017-09-15T14:23:29.607Z,52.11
2017-09-15T14:24:38.577Z,52.01
2017-09-15T14:25:47.233Z,52.01
2017-09-15T14:26:56.353Z,52.21
2017-09-15T14:28:05.049Z,52.01
2017-09-15T14:29:13.702Z,52.01
2017-09-15T14:30:22.686Z,52.21
2017-09-15T14:31:31.706Z,52.21
2017-09-15T14:32:40.463Z,51.92
2017-09-15T14:33:49.796Z,52.01
2017-09-15T14:34:58.854Z,52.31
2017-09-15T14:36:08.446Z,52.01
2017-09-15T14:37:18.368Z,52.01
2017-09-15T14:38:28.135Z,52.01
2017-09-15T14:39:36.792Z,52.31
2017-09-15T14:40:46.068Z,52.69
2017-09-15T14:41:55.724Z,53.15
2017-09-15T14:43:04.694Z,53.15
2017-09-15T14:44:14.039Z,53.89
2017-09-15T14:45:24.033Z,54.18
2017-09-15T14:46:33.003Z,54.35
2017-09-15T14:47:41.995Z,54.83
2017-09-15T14:48:51.276Z,54.93
2017-09-15T14:50:00.396Z,55.29
2017-09-15T14:51:10.235Z,55.77
2017-09-15T14:52:19.872Z,55.48